createdAt,value
2022-11-28T00:01:29.544Z,15.88
2022-11-28T00:03:57.417Z,16.70
2022-11-28T00:06:25.553Z,16.10
2022-11-28T00:08:55.013Z,16.13
2022-11-28T00:11:22.867Z,16.70
2022-11-28T00:13:50.761Z,16.17
2022-11-28T00:16:21.291Z,16.63
2022-11-28T00:18:49.514Z,16.40
2022-11-28T00:21:17.753Z,16.52
2022-11-28T00:23:46.195Z,16.38
2022-11-28T00:26:16.836Z,16.15
2022-11-28T00:28:44.719Z,16.85
2022-11-28T00:31:14.472Z,16.60
2022-11-28T00:33:42.436Z,15.82
2022-11-28T00:36:10.749Z,15.70
2022-11-28T00:38:38.668Z,16.65
2022-11-28T00:41:07.391Z,16.42
2022-11-28T00:43:36.661Z,16.63
2022-11-28T00:46:04.835Z,15.88
2022-11-28T00:48:33.219Z,16.02
2022-11-28T00:51:06.639Z,15.88
2022-11-28T00:53:34.564Z,15.10
2022-11-28T00:56:02.410Z,15.30
2022-11-28T00:58:30.304Z,15.65
2022-11-28T01:00:59.766Z,16.42
2022-11-28T01:03:27.689Z,16.20
2022-11-28T01:05:55.580Z,16.20
2022-11-28T01:08:23.466Z,14.80
2022-11-28T01:10:51.303Z,15.30
2022-11-28T01:13:19.150Z,15.43
2022-11-28T01:15:47.095Z,15.52
2022-11-28T01:18:16.396Z,15.05
2022-11-28T01:20:44.302Z,15.45
2022-11-28T01:23:12.160Z,16.05
2022-11-28T01:25:40.060Z,15.52
2022-11-28T01:28:07.918Z,15.88
2022-11-28T01:30:35.756Z,15.57
2022-11-28T01:33:03.598Z,15.73
2022-11-28T01:35:32.814Z,16.48
2022-11-28T01:38:00.682Z,15.80
2022-11-28T01:40:28.526Z,15.95
2022-11-28T01:42:56.409Z,14.90
2022-11-28T01:45:25.067Z,14.80
2022-11-28T01:47:54.078Z,16.25
2022-11-28T01:50:22.087Z,15.60
2022-11-28T01:52:52.707Z,16.00
2022-11-28T01:55:21.948Z,15.75
2022-11-28T01:57:49.792Z,15.18
2022-11-28T02:00:20.345Z,15.75
2022-11-28T02:02:49.357Z,15.07
2022-11-28T02:05:18.097Z,14.98
2022-11-28T02:07:46.071Z,16.00
2022-11-28T02:10:17.809Z,16.13
2022-11-28T02:12:57.608Z,15.05
2022-11-28T02:15:47.474Z,15.82
2022-11-28T02:18:24.022Z,15.15
2022-11-28T02:21:04.453Z,14.93
2022-11-28T02:23:40.490Z,15.30
2022-11-28T02:26:34.460Z,15.52
2022-11-28T02:29:34.196Z,15.45
2022-11-28T02:32:27.097Z,15.70
2022-11-28T02:34:57.735Z,14.77
2022-11-28T02:37:28.189Z,14.85
2022-11-28T02:40:01.635Z,15.45
2022-11-28T02:42:32.172Z,15.00
2022-11-28T02:45:01.411Z,15.80
2022-11-28T02:47:32.437Z,15.35
2022-11-28T02:50:03.118Z,15.15
2022-11-28T02:52:32.537Z,15.30
2022-11-28T02:55:00.421Z,15.02
2022-11-28T02:57:35.276Z,14.75
2022-11-28T03:00:03.180Z,15.02
2022-11-28T03:02:32.491Z,14.75
2022-11-28T03:05:03.602Z,15.55
2022-11-28T03:07:40.420Z,15.32
2022-11-28T03:10:15.963Z,15.23
2022-11-28T03:12:51.876Z,15.07
2022-11-28T03:15:21.820Z,15.40
2022-11-28T03:17:54.256Z,14.90
2022-11-28T03:20:23.911Z,14.82
2022-11-28T03:23:00.358Z,15.68
2022-11-28T03:25:29.690Z,14.85
2022-11-28T03:27:59.602Z,14.48
2022-11-28T03:30:29.617Z,15.65
2022-11-28T03:32:58.880Z,15.55
2022-11-28T03:35:30.062Z,15.25
2022-11-28T03:38:00.428Z,14.70
2022-11-28T03:40:29.239Z,15.20
2022-11-28T03:42:59.766Z,15.57
2022-11-28T03:45:29.238Z,15.68
2022-11-28T03:47:59.230Z,15.90
2022-11-28T03:50:29.064Z,15.45
2022-11-28T03:52:59.424Z,14.82
2022-11-28T03:55:30.424Z,15.68
2022-11-28T03:57:59.618Z,16.00
2022-11-28T04:00:27.533Z,15.30
2022-11-28T04:02:58.315Z,15.20
2022-11-28T04:05:28.720Z,15.45
2022-11-28T04:07:58.732Z,15.95
2022-11-28T04:10:29.612Z,15.65
2022-11-28T04:13:00.198Z,15.30
2022-11-28T04:15:32.164Z,15.48
2022-11-28T04:18:03.382Z,15.15
2022-11-28T04:20:33.247Z,16.45
2022-11-28T04:23:03.557Z,15.25
2022-11-28T04:25:31.411Z,15.38
2022-11-28T04:28:01.867Z,15.77
2022-11-28T04:30:29.753Z,15.82
2022-11-28T04:33:00.739Z,15.23
2022-11-28T04:35:31.172Z,15.90
2022-11-28T04:37:59.091Z,15.70
2022-11-28T04:40:27.589Z,15.35
2022-11-28T04:42:56.944Z,15.88
2022-11-28T04:45:27.570Z,15.55
2022-11-28T04:47:55.524Z,15.98
2022-11-28T04:50:23.700Z,16.10
2022-11-28T04:52:55.703Z,16.20
2022-11-28T04:55:27.393Z,16.80
2022-11-28T04:57:57.721Z,16.98
2022-11-28T05:00:25.716Z,16.25
2022-11-28T05:02:54.347Z,15.75
2022-11-28T05:05:23.257Z,16.23
2022-11-28T05:07:51.437Z,16.13
2022-11-28T05:10:20.978Z,16.05
2022-11-28T05:12:48.838Z,15.43
2022-11-28T05:15:19.054Z,16.85
2022-11-28T05:17:47.501Z,16.40
2022-11-28T05:20:15.402Z,16.30
2022-11-28T05:22:43.253Z,16.77
2022-11-28T05:25:11.211Z,16.48
2022-11-28T05:27:40.413Z,17.05
2022-11-28T05:30:09.381Z,16.20
2022-11-28T05:32:37.239Z,16.63
2022-11-28T05:35:05.572Z,16.42
2022-11-28T05:37:33.408Z,16.77
2022-11-28T05:40:01.242Z,16.35
2022-11-28T05:42:30.277Z,16.30
2022-11-28T05:44:59.484Z,16.45
2022-11-28T05:47:27.317Z,16.05
2022-11-28T05:49:55.170Z,16.55
2022-11-28T05:52:23.074Z,16.27
2022-11-28T05:54:50.897Z,16.65
2022-11-28T05:57:18.767Z,16.65
2022-11-28T05:59:46.718Z,16.27
2022-11-28T06:02:15.982Z,16.42
2022-11-28T06:04:44.019Z,16.80
2022-11-28T06:07:11.896Z,16.77
2022-11-28T06:09:39.779Z,15.93
2022-11-28T06:12:08.518Z,16.65
2022-11-28T06:14:36.386Z,16.08
2022-11-28T06:17:04.244Z,16.33
2022-11-28T06:19:33.406Z,16.00
2022-11-28T06:22:01.256Z,16.55
2022-11-28T06:24:29.273Z,15.85
2022-11-28T06:26:57.118Z,16.40
2022-11-28T06:29:24.939Z,15.65
2022-11-28T06:31:52.788Z,15.57
2022-11-28T06:34:20.732Z,15.85
2022-11-28T06:36:49.899Z,16.15
2022-11-28T06:39:18.047Z,15.80
2022-11-28T06:41:46.075Z,16.02
2022-11-28T06:44:14.143Z,27.08
2022-11-28T06:46:42.118Z,25.45
2022-11-28T06:49:11.275Z,26.30
2022-11-28T06:51:39.254Z,28.25
2022-11-28T06:54:09.244Z,30.08
2022-11-28T06:56:37.151Z,30.02
2022-11-28T06:59:05.051Z,28.90
2022-11-28T07:01:34.205Z,29.17
2022-11-28T07:04:02.215Z,28.25
2022-11-28T07:06:30.145Z,28.67
2022-11-28T07:08:58.279Z,29.85
2022-11-28T07:11:28.534Z,27.33
2022-11-28T07:13:56.567Z,27.75
2022-11-28T07:16:25.360Z,28.50
2022-11-28T07:18:53.260Z,28.40
2022-11-28T07:21:21.280Z,27.10
2022-11-28T07:23:49.387Z,27.63
2022-11-28T07:26:19.432Z,27.27
2022-11-28T07:28:48.982Z,26.90
2022-11-28T07:31:18.263Z,25.98
2022-11-28T07:33:46.761Z,25.70
2022-11-28T07:36:15.568Z,25.00
2022-11-28T07:38:43.695Z,24.48
2022-11-28T07:41:12.772Z,24.00
2022-11-28T07:43:40.747Z,24.75
2022-11-28T07:46:11.658Z,23.20
2022-11-28T07:48:39.573Z,23.33
2022-11-28T07:51:08.004Z,23.30
2022-11-28T07:53:35.860Z,22.48
2022-11-28T07:56:04.642Z,22.77
2022-11-28T07:58:32.526Z,22.05
2022-11-28T08:01:00.368Z,22.75
2022-11-28T08:03:29.612Z,22.08
2022-11-28T08:06:02.906Z,22.27
2022-11-28T08:08:31.119Z,21.50
2022-11-28T08:10:59.013Z,21.42
2022-11-28T08:13:27.030Z,22.65
2022-11-28T08:15:54.904Z,20.73
2022-11-28T08:18:22.864Z,20.77
2022-11-28T08:20:52.391Z,20.98
2022-11-28T08:23:20.260Z,20.10
2022-11-28T08:25:48.141Z,20.67
2022-11-28T08:28:17.337Z,19.65
2022-11-28T08:30:45.291Z,20.30
2022-11-28T08:33:13.760Z,19.83
2022-11-28T08:35:41.768Z,20.13
2022-11-28T08:38:11.084Z,19.52
2022-11-28T08:40:38.978Z,18.55
2022-11-28T08:43:08.013Z,19.70
2022-11-28T08:45:35.976Z,20.00
2022-11-28T08:48:03.912Z,18.85
2022-11-28T08:50:31.818Z,19.33
2022-11-28T08:53:01.685Z,19.45
2022-11-28T08:55:40.503Z,18.42
2022-11-28T08:58:09.842Z,19.23
2022-11-28T09:00:37.799Z,18.50
2022-11-28T09:03:05.947Z,19.98
2022-11-28T09:05:33.791Z,25.42
2022-11-28T09:08:01.782Z,26.73
2022-11-28T09:10:29.820Z,33.03
2022-11-28T09:12:59.014Z,28.75
2022-11-28T09:15:26.923Z,30.10
2022-11-28T09:17:54.858Z,28.80
2022-11-28T09:20:22.775Z,28.13
2022-11-28T09:22:50.620Z,28.25
2022-11-28T09:25:18.708Z,28.35
2022-11-28T09:27:46.582Z,27.40
2022-11-28T09:30:16.204Z,27.23
2022-11-28T09:32:44.067Z,26.90
2022-11-28T09:35:11.884Z,26.55
2022-11-28T09:37:39.762Z,26.20
2022-11-28T09:40:13.656Z,25.88
2022-11-28T09:42:43.990Z,26.30
2022-11-28T09:45:13.197Z,25.25
2022-11-28T09:47:43.615Z,25.63
2022-11-28T09:50:15.399Z,23.95
2022-11-28T09:52:46.202Z,25.27
2022-11-28T09:55:18.004Z,24.40
2022-11-28T09:57:47.317Z,24.13
2022-11-28T10:00:21.718Z,24.25
2022-11-28T10:03:02.038Z,22.52
2022-11-28T10:05:33.337Z,23.13
2022-11-28T10:08:10.814Z,22.30
2022-11-28T10:10:41.909Z,22.90
2022-11-28T10:13:13.535Z,22.33
2022-11-28T10:15:45.612Z,21.88
2022-11-28T10:18:23.728Z,21.70
2022-11-28T10:20:53.600Z,20.98
2022-11-28T10:23:24.080Z,21.23
2022-11-28T10:25:53.933Z,20.90
2022-11-28T10:28:23.275Z,21.00
2022-11-28T10:30:54.819Z,21.20
2022-11-28T10:33:25.440Z,21.00
2022-11-28T10:35:55.380Z,20.35
2022-11-28T10:38:26.020Z,20.10
2022-11-28T10:40:57.590Z,20.08
2022-11-28T10:43:30.594Z,20.25
2022-11-28T10:46:02.715Z,19.33
2022-11-28T10:48:40.850Z,18.83
2022-11-28T10:51:25.154Z,19.90
2022-11-28T10:53:57.502Z,19.27
2022-11-28T10:56:31.078Z,18.35
2022-11-28T10:59:00.690Z,18.52
2022-11-28T11:01:29.810Z,18.55
2022-11-28T11:03:59.159Z,17.25
2022-11-28T11:06:36.158Z,18.30
2022-11-28T11:09:09.386Z,18.23
2022-11-28T11:11:38.794Z,19.05
2022-11-28T11:14:07.805Z,16.80
2022-11-28T11:16:48.782Z,17.48
2022-11-28T11:19:29.805Z,16.80
2022-11-28T11:22:02.526Z,17.75
2022-11-28T11:24:30.510Z,16.52
2022-11-28T11:27:05.012Z,17.23
2022-11-28T11:29:35.523Z,17.55
2022-11-28T11:32:06.350Z,16.27
2022-11-28T11:34:39.435Z,16.25
2022-11-28T11:37:31.808Z,16.65
2022-11-28T11:39:59.757Z,15.73
2022-11-28T11:42:28.198Z,15.35
2022-11-28T11:44:56.230Z,15.65
2022-11-28T11:47:41.799Z,15.40
2022-11-28T11:50:18.756Z,15.98
2022-11-28T11:53:00.758Z,15.05
2022-11-28T11:55:29.232Z,15.05
2022-11-28T11:57:59.569Z,14.48
2022-11-28T12:00:34.281Z,15.10
2022-11-28T12:03:04.292Z,15.50
2022-11-28T12:05:58.974Z,14.80
2022-11-28T12:08:31.552Z,14.32
2022-11-28T12:11:06.531Z,14.27
2022-11-28T12:13:34.393Z,15.18
2022-11-28T12:16:06.087Z,13.68
2022-11-28T12:18:38.092Z,14.48
2022-11-28T12:21:14.555Z,14.50
2022-11-28T12:23:53.921Z,14.52
2022-11-28T12:26:24.754Z,13.73
2022-11-28T12:29:02.996Z,14.18
2022-11-28T12:31:35.257Z,13.98
2022-11-28T12:34:07.788Z,13.98
2022-11-28T12:36:39.176Z,13.80
2022-11-28T12:39:18.826Z,14.05
2022-11-28T12:42:10.514Z,13.20
2022-11-28T12:44:48.455Z,13.75
2022-11-28T12:47:19.389Z,13.00
2022-11-28T12:49:52.177Z,12.95
2022-11-28T12:52:24.700Z,13.07
2022-11-28T12:55:04.593Z,12.55
2022-11-28T12:57:35.285Z,13.50
2022-11-28T13:00:09.905Z,13.30
2022-11-28T13:02:43.768Z,12.48
2022-11-28T13:05:22.027Z,12.88
2022-11-28T13:08:02.864Z,12.82
2022-11-28T13:10:35.461Z,12.48
2022-11-28T13:13:05.463Z,12.80
2022-11-28T13:15:46.602Z,12.70
2022-11-28T13:18:21.671Z,12.15
2022-11-28T13:20:51.414Z,12.23
2022-11-28T13:23:23.051Z,12.73
2022-11-28T13:25:53.194Z,12.40
2022-11-28T13:28:23.069Z,12.60
2022-11-28T13:30:52.638Z,12.32
2022-11-28T13:33:29.572Z,12.75
2022-11-28T13:35:57.868Z,12.43
2022-11-28T13:38:35.595Z,11.95
2022-11-28T13:41:06.664Z,12.60
2022-11-28T13:43:39.292Z,12.32
2022-11-28T13:46:08.139Z,11.93
2022-11-28T13:49:19.656Z,13.00
2022-11-28T13:51:48.816Z,11.93
2022-11-28T13:54:48.725Z,12.20
2022-11-28T13:57:24.897Z,12.18
2022-11-28T13:59:55.065Z,12.40
2022-11-28T14:02:24.951Z,12.40
2022-11-28T14:04:52.973Z,12.38
2022-11-28T14:07:27.746Z,12.18
2022-11-28T14:10:04.999Z,12.20
2022-11-28T14:12:34.116Z,11.82
2022-11-28T14:15:09.063Z,12.25
2022-11-28T14:17:48.382Z,12.30
2022-11-28T14:20:22.073Z,12.30
2022-11-28T14:22:57.024Z,11.98
2022-11-28T14:25:28.616Z,12.10
2022-11-28T14:27:57.639Z,11.27
2022-11-28T14:30:30.691Z,11.90
2022-11-28T14:32:59.312Z,11.73
2022-11-28T14:36:04.581Z,11.27
2022-11-28T14:38:46.083Z,12.15
2022-11-28T14:41:16.888Z,11.88
2022-11-28T14:43:46.265Z,11.38
2022-11-28T14:46:29.229Z,11.23
2022-11-28T14:49:25.664Z,10.95
2022-11-28T14:52:38.949Z,11.63
2022-11-28T14:55:16.974Z,11.73
2022-11-28T14:57:55.969Z,11.18
2022-11-28T15:00:33.122Z,10.95
2022-11-28T15:03:08.545Z,11.23
2022-11-28T15:05:55.704Z,10.88
2022-11-28T15:08:52.693Z,10.40
2022-11-28T15:11:47.466Z,10.60
2022-11-28T15:14:22.474Z,11.40
2022-11-28T15:16:53.055Z,10.18
2022-11-28T15:19:25.979Z,11.00
2022-11-28T15:21:55.153Z,10.50
2022-11-28T15:24:25.892Z,10.57
2022-11-28T15:26:57.381Z,10.80
2022-11-28T15:29:27.864Z,10.55
2022-11-28T15:31:57.029Z,10.95
2022-11-28T15:34:26.979Z,10.57
2022-11-28T15:36:55.288Z,10.10
2022-11-28T15:39:29.053Z,10.60
2022-11-28T15:41:57.215Z,10.63
2022-11-28T15:44:25.268Z,10.00
2022-11-28T15:46:54.848Z,10.63
2022-11-28T15:49:27.831Z,10.18
2022-11-28T15:51:56.071Z,10.75
2022-11-28T15:54:39.118Z,9.60
2022-11-28T15:57:07.315Z,10.38
2022-11-28T15:59:35.315Z,10.52
2022-11-28T16:02:06.056Z,10.35
2022-11-28T16:04:34.040Z,10.15
2022-11-28T16:07:02.081Z,9.88
2022-11-28T16:09:31.320Z,9.95
2022-11-28T16:11:59.189Z,10.25
2022-11-28T16:14:29.052Z,9.95
2022-11-28T16:16:57.579Z,9.65
2022-11-28T16:19:27.419Z,10.38
2022-11-28T16:21:56.527Z,9.70
2022-11-28T16:24:26.753Z,9.75
2022-11-28T16:26:56.046Z,9.25
2022-11-28T16:29:24.491Z,9.48
2022-11-28T16:31:52.390Z,9.60
2022-11-28T16:34:45.950Z,9.55
2022-11-28T16:37:13.814Z,9.63
2022-11-28T16:39:41.775Z,9.48
2022-11-28T16:42:14.775Z,9.15
2022-11-28T16:44:42.674Z,9.40
2022-11-28T16:47:25.520Z,9.82
2022-11-28T16:50:17.462Z,9.75
2022-11-28T16:52:49.930Z,10.27
2022-11-28T16:55:44.339Z,10.40
2022-11-28T16:58:19.954Z,9.60
2022-11-28T17:01:08.478Z,9.10
2022-11-28T17:03:44.834Z,9.02
2022-11-28T17:06:23.260Z,10.02
2022-11-28T17:08:51.648Z,9.57
2022-11-28T17:11:21.040Z,9.73
2022-11-28T17:13:48.960Z,9.60
2022-11-28T17:16:18.340Z,9.48
2022-11-28T17:18:46.635Z,9.73
2022-11-28T17:21:14.580Z,9.07
2022-11-28T17:23:43.831Z,9.27
2022-11-28T17:26:11.836Z,9.13
2022-11-28T17:28:39.883Z,9.45
2022-11-28T17:31:07.854Z,9.60
2022-11-28T17:33:38.401Z,9.38
2022-11-28T17:36:10.859Z,9.50
2022-11-28T17:38:38.759Z,10.20
2022-11-28T17:41:09.994Z,9.45
2022-11-28T17:43:39.323Z,9.30
2022-11-28T17:46:07.704Z,9.40
2022-11-28T17:48:35.669Z,9.07
2022-11-28T17:51:04.098Z,9.32
2022-11-28T17:53:32.140Z,9.82
2022-11-28T17:56:00.581Z,9.55
2022-11-28T17:58:30.402Z,9.13
2022-11-28T18:01:00.706Z,9.68
2022-11-28T18:03:29.125Z,9.77
2022-11-28T18:05:57.094Z,9.45
2022-11-28T18:08:25.016Z,9.05
2022-11-28T18:11:03.366Z,8.82
2022-11-28T18:13:32.999Z,8.95
2022-11-28T18:16:01.027Z,9.00
2022-11-28T18:18:29.060Z,9.07
2022-11-28T18:20:57.506Z,9.02
2022-11-28T18:23:25.659Z,9.20
2022-11-28T18:25:53.574Z,9.13
2022-11-28T18:28:23.865Z,8.93
2022-11-28T18:30:53.534Z,9.20
2022-11-28T18:33:21.577Z,9.00
2022-11-28T18:35:49.444Z,9.43
2022-11-28T18:38:17.502Z,9.45
2022-11-28T18:40:45.420Z,9.43
2022-11-28T18:43:13.500Z,9.10
2022-11-28T18:45:41.424Z,8.80
2022-11-28T18:48:10.670Z,9.68
2022-11-28T18:50:39.353Z,9.20
2022-11-28T18:53:07.338Z,9.07
2022-11-28T18:55:35.608Z,9.57
2022-11-28T18:58:03.486Z,9.20
2022-11-28T19:00:31.333Z,9.32
2022-11-28T19:02:59.467Z,9.85
2022-11-28T19:05:28.660Z,8.45
2022-11-28T19:07:57.608Z,9.73
2022-11-28T19:10:26.700Z,8.20
2022-11-28T19:12:54.712Z,8.88
2022-11-28T19:15:22.721Z,8.70
2022-11-28T19:17:50.582Z,9.07
2022-11-28T19:20:18.944Z,8.88
2022-11-28T19:22:50.269Z,8.75
2022-11-28T19:25:18.489Z,8.63
2022-11-28T19:27:50.272Z,8.90
2022-11-28T19:30:19.425Z,8.82
2022-11-28T19:32:47.269Z,9.05
2022-11-28T19:35:15.307Z,9.15
2022-11-28T19:37:44.401Z,8.52
2022-11-28T19:40:14.504Z,9.10
2022-11-28T19:42:42.565Z,8.93
2022-11-28T19:45:11.723Z,8.40
2022-11-28T19:47:39.852Z,9.32
2022-11-28T19:50:09.632Z,9.15
2022-11-28T19:52:38.291Z,9.20
2022-11-28T19:55:07.475Z,9.10
2022-11-28T19:57:38.079Z,9.05
2022-11-28T20:00:08.413Z,8.65
2022-11-28T20:02:41.845Z,9.32
2022-11-28T20:05:10.517Z,8.98
2022-11-28T20:07:38.500Z,9.05
2022-11-28T20:10:07.573Z,9.20
2022-11-28T20:12:36.798Z,8.98
2022-11-28T20:15:05.295Z,8.73
2022-11-28T20:17:33.385Z,8.88
2022-11-28T20:20:01.318Z,8.65
2022-11-28T20:22:29.281Z,9.10
2022-11-28T20:24:57.366Z,8.80
2022-11-28T20:27:25.351Z,8.88
2022-11-28T20:29:55.198Z,9.00
2022-11-28T20:32:23.211Z,8.45
2022-11-28T20:34:51.123Z,8.90
2022-11-28T20:37:19.079Z,8.43
2022-11-28T20:39:47.117Z,8.45
2022-11-28T20:42:15.415Z,8.77
2022-11-28T20:44:43.253Z,8.63
2022-11-28T20:47:12.631Z,8.50
2022-11-28T20:49:40.562Z,8.93
2022-11-28T20:52:08.514Z,9.02
2022-11-28T20:54:36.476Z,8.25
2022-11-28T20:57:21.844Z,7.72
2022-11-28T20:59:50.245Z,8.30
2022-11-28T21:02:19.517Z,8.20
2022-11-28T21:04:47.379Z,8.63
2022-11-28T21:07:15.355Z,8.88
2022-11-28T21:09:43.629Z,8.48
2022-11-28T21:12:14.437Z,8.52
2022-11-28T21:14:44.564Z,8.25
2022-11-28T21:17:12.478Z,8.27
2022-11-28T21:19:41.919Z,8.00
2022-11-28T21:22:09.973Z,8.65
2022-11-28T21:24:37.901Z,8.32
2022-11-28T21:27:05.798Z,7.88
2022-11-28T21:29:33.665Z,8.00
2022-11-28T21:32:01.619Z,8.40
2022-11-28T21:34:29.559Z,8.55
2022-11-28T21:36:58.907Z,8.07
2022-11-28T21:39:26.778Z,8.25
2022-11-28T21:41:54.704Z,8.77
2022-11-28T21:44:22.655Z,7.47
2022-11-28T21:46:50.641Z,8.13
2022-11-28T21:49:18.744Z,8.27
2022-11-28T21:51:46.704Z,8.38
2022-11-28T21:54:16.576Z,8.73
2022-11-28T21:56:46.164Z,8.55
2022-11-28T21:59:14.131Z,8.32
2022-11-28T22:01:42.147Z,8.60
2022-11-28T22:04:11.034Z,8.27
2022-11-28T22:06:39.728Z,8.25
2022-11-28T22:09:09.788Z,8.50
2022-11-28T22:11:40.859Z,8.27
2022-11-28T22:14:08.909Z,8.48
2022-11-28T22:16:37.773Z,8.40
2022-11-28T22:19:06.275Z,8.13
2022-11-28T22:21:51.559Z,7.88
2022-11-28T22:24:20.108Z,7.78
2022-11-28T22:26:50.529Z,7.53
2022-11-28T22:29:19.424Z,8.10
2022-11-28T22:31:47.494Z,7.30
2022-11-28T22:34:15.559Z,7.18
2022-11-28T22:36:44.076Z,6.88
2022-11-28T22:39:12.376Z,7.63
2022-11-28T22:41:40.301Z,7.75
2022-11-28T22:44:11.589Z,7.63
2022-11-28T22:46:39.845Z,7.25
2022-11-28T22:49:10.515Z,7.97
2022-11-28T22:51:39.312Z,7.28
2022-11-28T22:54:07.639Z,7.35
2022-11-28T22:56:35.680Z,7.25
2022-11-28T22:59:04.800Z,7.80
2022-11-28T23:01:35.257Z,7.25
2022-11-28T23:04:03.154Z,7.38
2022-11-28T23:06:31.798Z,7.15
2022-11-28T23:09:00.444Z,6.85
2022-11-28T23:11:30.335Z,7.22
2022-11-28T23:13:59.561Z,6.93
2022-11-28T23:16:29.733Z,6.78
2022-11-28T23:19:00.241Z,6.32
2022-11-28T23:21:30.182Z,7.28
2022-11-28T23:23:58.274Z,6.57
2022-11-28T23:26:28.094Z,7.00
2022-11-28T23:28:56.101Z,7.07
2022-11-28T23:31:25.033Z,6.72
2022-11-28T23:33:54.983Z,6.18
2022-11-28T23:36:25.376Z,6.70
2022-11-28T23:38:55.095Z,7.03
2022-11-28T23:41:23.063Z,6.80
2022-11-28T23:43:50.995Z,6.55
2022-11-28T23:46:19.152Z,6.85
2022-11-28T23:48:47.396Z,6.38
2022-11-28T23:51:15.807Z,6.50
2022-11-28T23:53:45.070Z,6.53
2022-11-28T23:56:13.792Z,6.30
2022-11-28T23:58:41.686Z,6.20
